createdAt,value
2023-04-30T00:03:24.561Z,101498.50
2023-04-30T00:07:26.668Z,101499.19
2023-04-30T00:11:28.291Z,101497.53
2023-04-30T00:15:29.793Z,101508.78
2023-04-30T00:19:31.221Z,101507.47
2023-04-30T00:23:32.708Z,101502.66
2023-04-30T00:31:45.671Z,101508.69
2023-04-30T00:35:47.405Z,101516.19
2023-04-30T00:39:48.852Z,101514.22
2023-04-30T00:43:50.301Z,101529.34
2023-04-30T00:47:51.846Z,101534.06
2023-04-30T00:51:54.377Z,101541.03
2023-04-30T00:55:56.677Z,101545.75
2023-04-30T00:59:58.600Z,101548.50
2023-04-30T01:04:00.948Z,101552.50
2023-04-30T01:08:02.433Z,101555.28
2023-04-30T01:12:17.702Z,101561.59
2023-04-30T01:16:30.595Z,101566.16
2023-04-30T01:20:33.669Z,101568.03
2023-04-30T01:24:58.206Z,101576.59
2023-04-30T01:29:02.826Z,101572.28
2023-04-30T01:33:04.454Z,101572.13
2023-04-30T01:37:16.311Z,101576.72
2023-04-30T01:41:34.494Z,101576.00
2023-04-30T01:45:41.946Z,101577.75
2023-04-30T01:50:29.028Z,101585.19
2023-04-30T01:54:42.176Z,101594.63
2023-04-30T01:58:45.705Z,101600.72
2023-04-30T02:02:47.207Z,101604.66
2023-04-30T02:06:48.726Z,101608.00
2023-04-30T02:10:50.252Z,101610.91
2023-04-30T02:14:51.673Z,101625.94
2023-04-30T02:18:53.111Z,101629.84
2023-04-30T02:22:54.560Z,101633.28
2023-04-30T02:26:56.020Z,101643.88
2023-04-30T02:30:57.693Z,101646.91
2023-04-30T02:34:59.192Z,101634.56
2023-04-30T02:39:00.708Z,101649.09
2023-04-30T02:43:02.103Z,101648.59
2023-04-30T02:47:03.523Z,101656.31
2023-04-30T02:51:05.506Z,101649.78
2023-04-30T02:55:07.661Z,101657.22
2023-04-30T02:59:09.137Z,101655.50
2023-04-30T03:03:10.818Z,101664.84
2023-04-30T03:07:12.534Z,101661.38
2023-04-30T03:11:14.019Z,101670.94
2023-04-30T03:15:15.650Z,101674.03
2023-04-30T03:19:17.554Z,101672.78
2023-04-30T03:23:18.998Z,101679.41
2023-04-30T03:27:20.890Z,101686.22
2023-04-30T03:31:22.427Z,101680.03
2023-04-30T03:35:23.821Z,101679.50
2023-04-30T03:39:25.423Z,101680.22
2023-04-30T03:43:26.895Z,101680.00
2023-04-30T03:47:28.465Z,101675.03
2023-04-30T03:51:29.948Z,101687.03
2023-04-30T03:55:31.464Z,101691.72
2023-04-30T03:59:33.086Z,101701.50
2023-04-30T04:03:35.429Z,101704.28
2023-04-30T04:07:36.878Z,101709.34
2023-04-30T04:11:38.355Z,101712.00
2023-04-30T04:15:39.795Z,101716.34
2023-04-30T04:19:41.477Z,101725.63
2023-04-30T04:23:42.933Z,101730.94
2023-04-30T04:27:45.076Z,101734.97
2023-04-30T04:31:48.973Z,101736.47
2023-04-30T04:35:50.458Z,101733.84
2023-04-30T04:39:52.405Z,101743.91
2023-04-30T04:43:54.119Z,101743.06
2023-04-30T04:47:55.683Z,101751.69
2023-04-30T04:51:57.147Z,101750.81
2023-04-30T04:55:58.546Z,101761.97
2023-04-30T04:59:59.975Z,101770.56
2023-04-30T05:04:01.725Z,101775.78
2023-04-30T05:08:03.204Z,101773.81
2023-04-30T05:12:05.052Z,101786.63
2023-04-30T05:16:06.625Z,101786.00
2023-04-30T05:20:08.823Z,101789.28
2023-04-30T05:24:10.256Z,101788.44
2023-04-30T05:28:11.944Z,101800.19
2023-04-30T05:32:13.460Z,101808.81
2023-04-30T05:36:15.322Z,101814.47
2023-04-30T05:40:17.114Z,101807.66
2023-04-30T05:44:18.565Z,101810.47
2023-04-30T05:48:20.362Z,101824.88
2023-04-30T05:52:21.793Z,101830.09
2023-04-30T05:56:24.681Z,101828.06
2023-04-30T06:00:26.143Z,101834.19
2023-04-30T06:04:27.627Z,101825.13
2023-04-30T06:08:29.800Z,101835.84
2023-04-30T06:12:31.530Z,101839.56
2023-04-30T06:16:33.150Z,101841.34
2023-04-30T06:20:34.630Z,101848.19
2023-04-30T06:24:36.387Z,101845.38
2023-04-30T06:28:37.832Z,101852.53
2023-04-30T06:32:39.332Z,101852.94
2023-04-30T06:36:40.792Z,101851.44
2023-04-30T06:40:42.325Z,101856.63
2023-04-30T06:44:43.839Z,101853.38
2023-04-30T06:48:45.337Z,101856.78
2023-04-30T06:52:46.802Z,101862.38
2023-04-30T06:56:48.619Z,101861.59
2023-04-30T07:00:50.047Z,101858.31
2023-04-30T07:04:51.547Z,101849.28
2023-04-30T07:08:53.040Z,101856.06
2023-04-30T07:12:54.795Z,101851.69
2023-04-30T07:16:56.319Z,101853.72
2023-04-30T07:20:57.722Z,101855.06
2023-04-30T07:24:59.244Z,101854.25
2023-04-30T07:29:00.745Z,101850.91
2023-04-30T07:33:02.883Z,101857.66
2023-04-30T07:37:04.382Z,101848.94
2023-04-30T07:41:06.294Z,101850.97
2023-04-30T07:45:08.317Z,101852.34
2023-04-30T07:49:09.815Z,101861.41
2023-04-30T07:53:11.448Z,101860.81
2023-04-30T07:57:13.099Z,101869.44
2023-04-30T08:01:15.597Z,101859.16
2023-04-30T08:05:17.136Z,101870.94
2023-04-30T08:09:18.570Z,101879.81
2023-04-30T08:13:20.777Z,101879.44
2023-04-30T08:17:22.242Z,101877.25
2023-04-30T08:21:23.985Z,101875.72
2023-04-30T08:25:25.587Z,101874.59
2023-04-30T08:29:27.790Z,101876.38
2023-04-30T08:33:29.212Z,101869.06
2023-04-30T08:37:30.773Z,101878.19
2023-04-30T08:41:35.789Z,101872.31
2023-04-30T08:45:37.428Z,101877.38
2023-04-30T08:49:39.647Z,101882.19
2023-04-30T08:53:42.562Z,101877.13
2023-04-30T08:57:43.987Z,101880.22
2023-04-30T09:01:45.850Z,101879.59
2023-04-30T09:05:47.560Z,101882.91
2023-04-30T09:09:53.238Z,101888.44
2023-04-30T09:14:00.031Z,101887.53
2023-04-30T09:18:10.334Z,101893.50
2023-04-30T09:22:23.417Z,101880.69
2023-04-30T09:26:31.572Z,101890.78
2023-04-30T09:30:33.666Z,101890.44
2023-04-30T09:34:38.018Z,101886.41
2023-04-30T09:38:39.693Z,101896.66
2023-04-30T09:42:41.544Z,101899.19
2023-04-30T09:46:44.474Z,101893.31
2023-04-30T09:50:53.098Z,101885.84
2023-04-30T09:54:54.619Z,101893.72
2023-04-30T09:58:57.068Z,101889.66
2023-04-30T10:03:01.745Z,101883.41
2023-04-30T10:07:11.090Z,101883.00
2023-04-30T10:11:22.536Z,101877.53
2023-04-30T10:15:28.358Z,101877.94
2023-04-30T10:19:34.523Z,101876.16
2023-04-30T10:23:43.597Z,101877.28
2023-04-30T10:27:46.206Z,101883.00
2023-04-30T10:31:50.512Z,101882.91
2023-04-30T10:35:59.674Z,101864.75
2023-04-30T10:40:02.261Z,101865.03
2023-04-30T10:44:05.546Z,101852.88
2023-04-30T10:48:07.420Z,101855.63
2023-04-30T10:52:11.421Z,101849.91
2023-04-30T10:56:13.324Z,101851.84
2023-04-30T11:00:20.053Z,101851.38
2023-04-30T11:04:21.615Z,101849.84
2023-04-30T11:08:53.115Z,101847.41
2023-04-30T11:12:55.753Z,101847.34
2023-04-30T11:16:59.423Z,101848.75
2023-04-30T11:21:02.133Z,101841.09
2023-04-30T11:25:06.573Z,101840.59
2023-04-30T11:29:08.794Z,101839.41
2023-04-30T11:33:11.713Z,101837.41
2023-04-30T11:37:21.896Z,101827.16
2023-04-30T11:41:23.381Z,101833.38
2023-04-30T11:45:25.369Z,101830.44
2023-04-30T11:49:27.432Z,101834.34
2023-04-30T11:53:29.493Z,101828.13
2023-04-30T11:57:41.312Z,101821.84
2023-04-30T12:01:44.067Z,101823.31
2023-04-30T12:05:46.188Z,101827.06
2023-04-30T12:09:57.236Z,101822.84
2023-04-30T12:14:10.953Z,101830.06
2023-04-30T12:18:14.068Z,101820.34
2023-04-30T12:22:15.697Z,101825.41
2023-04-30T12:26:17.850Z,101820.91
2023-04-30T12:30:26.815Z,101815.16
2023-04-30T12:34:31.489Z,101812.25
2023-04-30T12:38:34.453Z,101817.44
2023-04-30T12:42:36.264Z,101805.78
2023-04-30T12:46:37.988Z,101808.00
2023-04-30T12:50:39.590Z,101805.63
2023-04-30T12:54:41.153Z,101792.78
2023-04-30T12:58:45.656Z,101793.72
2023-04-30T13:02:47.234Z,101787.91
2023-04-30T13:06:49.576Z,101789.47
2023-04-30T13:10:51.815Z,101778.97
2023-04-30T13:14:53.263Z,101789.06
2023-04-30T13:18:55.064Z,101784.63
2023-04-30T13:22:56.734Z,101790.66
2023-04-30T13:26:59.190Z,101792.13
2023-04-30T13:31:00.763Z,101786.66
2023-04-30T13:35:03.067Z,101779.34
2023-04-30T13:39:05.505Z,101772.50
2023-04-30T13:43:07.790Z,101777.50
2023-04-30T13:47:10.244Z,101761.63
2023-04-30T13:51:11.738Z,101759.69
2023-04-30T13:55:13.733Z,101748.00
2023-04-30T13:59:15.720Z,101751.59
2023-04-30T14:03:18.994Z,101742.22
2023-04-30T14:07:20.696Z,101739.31
2023-04-30T14:11:22.296Z,101745.78
2023-04-30T14:15:24.539Z,101737.78
2023-04-30T14:19:26.992Z,101729.38
2023-04-30T14:23:29.102Z,101734.69
2023-04-30T14:27:30.972Z,101736.34
2023-04-30T14:31:32.610Z,101739.25
2023-04-30T14:35:34.211Z,101731.06
2023-04-30T14:39:35.639Z,101722.63
2023-04-30T14:43:37.055Z,101718.13
2023-04-30T14:47:38.527Z,101719.00
2023-04-30T14:51:40.001Z,101711.09
2023-04-30T14:55:41.913Z,101719.44
2023-04-30T14:59:43.437Z,101716.91
2023-04-30T15:03:45.102Z,101712.84
2023-04-30T15:07:46.808Z,101707.47
2023-04-30T15:11:48.787Z,101711.09
2023-04-30T15:15:50.493Z,101701.13
2023-04-30T15:19:53.474Z,101702.97
2023-04-30T15:23:55.558Z,101701.25
2023-04-30T15:27:58.394Z,101700.81
2023-04-30T15:31:59.985Z,101696.44
2023-04-30T15:36:01.529Z,101701.44
2023-04-30T15:40:04.923Z,101698.53
2023-04-30T15:44:06.391Z,101696.84
2023-04-30T15:48:07.971Z,101692.53
2023-04-30T15:52:10.060Z,101687.91
2023-04-30T15:56:11.942Z,101697.34
2023-04-30T16:00:15.208Z,101687.81
2023-04-30T16:04:16.665Z,101684.75
2023-04-30T16:08:18.327Z,101684.41
2023-04-30T16:12:20.178Z,101681.19
2023-04-30T16:16:21.698Z,101677.09
2023-04-30T16:20:23.826Z,101684.84
2023-04-30T16:24:25.376Z,101676.81
2023-04-30T16:28:28.285Z,101667.56
2023-04-30T16:32:29.834Z,101659.56
2023-04-30T16:36:32.738Z,101659.75
2023-04-30T16:40:34.231Z,101668.78
2023-04-30T16:44:35.639Z,101666.75
2023-04-30T16:48:37.764Z,101669.59
2023-04-30T16:52:39.256Z,101659.63
2023-04-30T16:56:40.866Z,101655.09
2023-04-30T17:00:42.705Z,101649.06
2023-04-30T17:04:44.419Z,101642.78
2023-04-30T17:08:45.877Z,101646.50
2023-04-30T17:12:47.528Z,101647.84
2023-04-30T17:16:48.934Z,101651.88
2023-04-30T17:20:52.034Z,101647.00
2023-04-30T17:24:53.562Z,101651.69
2023-04-30T17:28:55.012Z,101653.44
2023-04-30T17:32:56.730Z,101655.91
2023-04-30T17:36:58.380Z,101651.34
2023-04-30T17:40:59.890Z,101656.72
2023-04-30T17:45:01.338Z,101650.13
2023-04-30T17:49:04.160Z,101643.63
2023-04-30T17:53:05.582Z,101648.69
2023-04-30T17:57:07.144Z,101657.22
2023-04-30T18:01:08.687Z,101650.50
2023-04-30T18:05:11.625Z,101655.13
2023-04-30T18:09:13.952Z,101661.31
2023-04-30T18:13:15.432Z,101651.94
2023-04-30T18:17:16.951Z,101650.00
2023-04-30T18:21:18.584Z,101650.59
2023-04-30T18:25:20.080Z,101652.50
2023-04-30T18:29:21.615Z,101655.69
2023-04-30T18:33:23.086Z,101664.28
2023-04-30T18:37:24.808Z,101660.50
2023-04-30T18:41:27.021Z,101662.91
2023-04-30T18:45:28.564Z,101653.81
2023-04-30T18:49:30.326Z,101665.78
2023-04-30T18:53:31.844Z,101673.75
2023-04-30T18:57:34.191Z,101671.78
2023-04-30T19:01:36.041Z,101671.34
2023-04-30T19:05:37.712Z,101671.69
2023-04-30T19:09:39.564Z,101679.00
2023-04-30T19:13:41.038Z,101685.47
2023-04-30T19:17:42.478Z,101685.59
2023-04-30T19:21:43.963Z,101690.53
2023-04-30T19:25:47.876Z,101686.50
2023-04-30T19:29:49.349Z,101680.78
2023-04-30T19:33:50.778Z,101672.69
2023-04-30T19:37:52.330Z,101678.09
2023-04-30T19:41:53.822Z,101674.94
2023-04-30T19:45:56.998Z,101674.22
2023-04-30T19:49:58.572Z,101673.38
2023-04-30T19:54:00.186Z,101676.66
2023-04-30T19:58:01.569Z,101685.13
2023-04-30T20:02:03.131Z,101690.25
2023-04-30T20:06:05.902Z,101688.75
2023-04-30T20:10:09.687Z,101683.22
2023-04-30T20:14:11.182Z,101689.44
2023-04-30T20:18:12.774Z,101688.72
2023-04-30T20:22:14.275Z,101687.75
2023-04-30T20:26:15.714Z,101684.03
2023-04-30T20:30:18.176Z,101678.84
2023-04-30T20:34:19.620Z,101691.88
2023-04-30T20:38:22.150Z,101689.31
2023-04-30T20:42:23.649Z,101688.03
2023-04-30T20:46:25.225Z,101689.16
2023-04-30T20:50:27.575Z,101678.84
2023-04-30T20:54:30.239Z,101691.00
2023-04-30T20:58:31.724Z,101690.72
2023-04-30T21:02:34.061Z,101684.47
2023-04-30T21:06:35.682Z,101685.09
2023-04-30T21:10:37.312Z,101675.41
2023-04-30T21:14:38.774Z,101683.94
2023-04-30T21:18:40.383Z,101680.69
2023-04-30T21:22:42.186Z,101683.47
2023-04-30T21:26:43.693Z,101681.88
2023-04-30T21:30:45.150Z,101692.03
2023-04-30T21:34:46.561Z,101690.56
2023-04-30T21:38:47.981Z,101689.09
2023-04-30T21:42:49.761Z,101688.94
2023-04-30T21:46:51.263Z,101675.59
2023-04-30T21:50:52.696Z,101680.50
2023-04-30T21:54:54.108Z,101685.56
2023-04-30T21:58:55.564Z,101681.03
2023-04-30T22:02:57.091Z,101677.16
2023-04-30T22:06:58.773Z,101679.56
2023-04-30T22:11:00.935Z,101680.56
2023-04-30T22:15:02.953Z,101680.41
2023-04-30T22:19:04.442Z,101681.09
2023-04-30T22:23:05.994Z,101684.31
2023-04-30T22:27:08.562Z,101681.72
2023-04-30T22:31:10.074Z,101674.38
2023-04-30T22:35:11.694Z,101681.69
2023-04-30T22:39:13.301Z,101674.38
2023-04-30T22:43:14.782Z,101675.53
2023-04-30T22:47:16.523Z,101668.69
2023-04-30T22:51:18.904Z,101660.56
2023-04-30T22:55:20.336Z,101659.25
2023-04-30T22:59:21.968Z,101662.81
2023-04-30T23:03:23.425Z,101652.41
2023-04-30T23:07:24.943Z,101655.50
2023-04-30T23:11:26.758Z,101652.25
2023-04-30T23:15:28.368Z,101653.69
2023-04-30T23:19:29.821Z,101647.00
2023-04-30T23:23:32.290Z,101641.00
2023-04-30T23:27:33.893Z,101640.00
2023-04-30T23:31:35.558Z,101638.56
2023-04-30T23:35:37.249Z,101634.16
2023-04-30T23:39:38.677Z,101632.34
2023-04-30T23:43:40.104Z,101633.28
2023-04-30T23:47:41.582Z,101627.28
2023-04-30T23:51:43.416Z,101621.56
2023-04-30T23:55:44.812Z,101622.25
2023-04-30T23:59:46.204Z,101616.47
